createdAt,value
2018-07-28T00:00:48.548Z,1003.19
2018-07-28T00:01:57.196Z,1003.17
2018-07-28T00:03:05.854Z,1003.16
2018-07-28T00:04:14.497Z,1003.16
2018-07-28T00:05:23.157Z,1003.11
2018-07-28T00:06:31.803Z,1003.08
2018-07-28T00:07:40.721Z,1003.08
2018-07-28T00:08:49.633Z,1003.08
2018-07-28T00:09:58.294Z,1003.04
2018-07-28T00:11:06.945Z,1003.06
2018-07-28T00:12:15.599Z,1003.04
2018-07-28T00:13:24.245Z,1003.04
2018-07-28T00:14:33.169Z,1003.03
2018-07-28T00:15:41.829Z,1003.03
2018-07-28T00:16:50.481Z,1002.99
2018-07-28T00:17:59.669Z,1002.99
2018-07-28T00:19:08.310Z,1003.01
2018-07-28T00:20:16.968Z,1002.98
2018-07-28T00:21:25.879Z,1002.99
2018-07-28T00:22:34.541Z,1003.02
2018-07-28T00:23:43.180Z,1003.02
2018-07-28T00:24:51.837Z,1003.02
2018-07-28T00:26:00.483Z,1002.99
2018-07-28T00:27:09.145Z,1002.98
2018-07-28T00:28:17.789Z,1002.96
2018-07-28T00:29:26.707Z,1002.97
2018-07-28T00:30:35.618Z,1003
2018-07-28T00:31:44.280Z,1003
2018-07-28T00:32:52.928Z,1003.01
2018-07-28T00:34:01.580Z,1003.02
2018-07-28T00:35:10.228Z,1003.04
2018-07-28T00:36:18.877Z,1003
2018-07-28T00:37:27.533Z,1003.03
2018-07-28T00:38:36.183Z,1003.02
2018-07-28T00:39:44.835Z,1002.99
2018-07-28T00:40:53.481Z,1002.99
2018-07-28T00:42:02.401Z,1002.96
2018-07-28T00:43:11.053Z,1002.91
2018-07-28T00:44:19.704Z,1002.94
2018-07-28T00:45:28.355Z,1002.88
2018-07-28T00:46:37.012Z,1002.9
2018-07-28T00:47:45.933Z,1002.87
2018-07-28T00:48:54.587Z,1002.87
2018-07-28T00:50:03.234Z,1002.87
2018-07-28T00:51:11.889Z,1002.85
2018-07-28T00:52:20.539Z,1002.81
2018-07-28T00:53:29.192Z,1002.81
2018-07-28T00:54:37.845Z,1002.79
2018-07-28T00:55:46.490Z,1002.71
2018-07-28T00:56:55.143Z,1002.73
2018-07-28T00:58:03.809Z,1002.71
2018-07-28T00:59:12.465Z,1002.72
2018-07-28T01:00:21.115Z,1002.73
2018-07-28T01:01:29.765Z,1002.71
2018-07-28T01:02:38.415Z,1002.68
2018-07-28T01:03:47.071Z,1002.68
2018-07-28T01:04:55.979Z,1002.66
2018-07-28T01:06:05.171Z,1002.67
2018-07-28T01:07:13.823Z,1002.68
2018-07-28T01:08:22.477Z,1002.65
2018-07-28T01:09:31.126Z,1002.62
2018-07-28T01:10:40.039Z,1002.62
2018-07-28T01:11:48.690Z,1002.61
2018-07-28T01:12:57.338Z,1002.6
2018-07-28T01:14:05.993Z,1002.58
2018-07-28T01:15:14.644Z,1002.57
2018-07-28T01:16:23.294Z,1002.56
2018-07-28T01:17:31.942Z,1002.56
2018-07-28T01:18:40.596Z,1002.54
2018-07-28T01:19:49.250Z,1002.54
2018-07-28T01:20:57.901Z,1002.54
2018-07-28T01:22:06.541Z,1002.5
2018-07-28T01:23:15.201Z,1002.48
2018-07-28T01:24:23.846Z,1002.49
2018-07-28T01:25:32.503Z,1002.44
2018-07-28T01:26:41.146Z,1002.44
2018-07-28T01:27:49.806Z,1002.39
2018-07-28T01:28:58.449Z,1002.39
2018-07-28T01:30:07.102Z,1002.37
2018-07-28T01:31:15.751Z,1002.36
2018-07-28T01:32:24.413Z,1002.35
2018-07-28T01:33:33.064Z,1002.36
2018-07-28T01:34:41.714Z,1002.39
2018-07-28T01:35:50.360Z,1002.36
2018-07-28T01:36:59.016Z,1002.34
2018-07-28T01:38:07.662Z,1002.35
2018-07-28T01:39:16.577Z,1002.29
2018-07-28T01:40:25.223Z,1002.29
2018-07-28T01:41:33.880Z,1002.28
2018-07-28T01:42:42.528Z,1002.29
2018-07-28T01:43:51.181Z,1002.26
2018-07-28T01:45:00.091Z,1002.22
2018-07-28T01:46:08.746Z,1002.23
2018-07-28T01:47:17.397Z,1002.22
2018-07-28T01:48:26.049Z,1002.21
2018-07-28T01:49:34.814Z,1002.18
2018-07-28T01:50:43.350Z,1002.12
2018-07-28T01:51:52.000Z,1002.13
2018-07-28T01:53:00.655Z,1002.09
2018-07-28T01:54:09.311Z,1002.07
2018-07-28T01:55:17.957Z,1002.05
2018-07-28T01:56:26.607Z,1002.07
2018-07-28T01:57:35.259Z,1001.98
2018-07-28T01:58:43.914Z,1001.98
2018-07-28T01:59:52.824Z,1001.97
2018-07-28T02:01:01.481Z,1001.92
2018-07-28T02:02:10.390Z,1001.91
2018-07-28T02:03:19.045Z,1001.89
2018-07-28T02:04:27.696Z,1001.91
2018-07-28T02:05:36.614Z,1001.89
2018-07-28T02:06:45.264Z,1001.87
2018-07-28T02:07:53.911Z,1001.87
2018-07-28T02:09:02.831Z,1001.84
2018-07-28T02:10:11.528Z,1001.82
2018-07-28T02:11:20.134Z,1001.82
2018-07-28T02:12:28.779Z,1001.83
2018-07-28T02:13:37.436Z,1001.78
2018-07-28T02:14:46.084Z,1001.74
2018-07-28T02:15:54.735Z,1001.72
2018-07-28T02:17:03.390Z,1001.69
2018-07-28T02:18:12.305Z,1001.66
2018-07-28T02:19:20.952Z,1001.61
2018-07-28T02:20:29.605Z,1001.61
2018-07-28T02:21:38.521Z,1001.59
2018-07-28T02:22:47.175Z,1001.57
2018-07-28T02:23:55.827Z,1001.55
2018-07-28T02:25:04.480Z,1001.51
2018-07-28T02:26:13.143Z,1001.49
2018-07-28T02:27:21.785Z,1001.5
2018-07-28T02:28:30.440Z,1001.5
2018-07-28T02:29:39.085Z,1001.45
2018-07-28T02:30:47.748Z,1001.47
2018-07-28T02:31:56.924Z,1001.48
2018-07-28T02:33:05.580Z,1001.44
2018-07-28T02:34:14.227Z,1001.46
2018-07-28T02:35:22.890Z,1001.46
2018-07-28T02:36:32.056Z,1001.43
2018-07-28T02:37:40.976Z,1001.39
2018-07-28T02:38:49.904Z,1001.4
2018-07-28T02:39:58.833Z,1001.38
2018-07-28T02:41:07.484Z,1001.35
2018-07-28T02:42:16.146Z,1001.34
2018-07-28T02:43:24.800Z,1001.36
2018-07-28T02:44:33.726Z,1001.35
2018-07-28T02:45:42.645Z,1001.32
2018-07-28T02:46:51.290Z,1001.33
2018-07-28T02:47:59.948Z,1001.27
2018-07-28T02:49:08.865Z,1001.27
2018-07-28T02:50:17.525Z,1001.27
2018-07-28T02:51:26.173Z,1001.21
2018-07-28T02:52:34.829Z,1001.22
2018-07-28T02:53:43.470Z,1001.16
2018-07-28T02:54:52.666Z,1001.13
2018-07-28T02:56:01.840Z,1001.11
2018-07-28T02:57:10.504Z,1001.1
2018-07-28T02:58:19.417Z,1001.07
2018-07-28T02:59:28.332Z,1001.04
2018-07-28T03:00:37.264Z,1001.02
2018-07-28T03:01:45.919Z,1000.99
2018-07-28T03:02:54.573Z,1000.99
2018-07-28T03:04:03.496Z,1000.98
2018-07-28T03:05:12.144Z,1001
2018-07-28T03:06:21.314Z,1001.01
2018-07-28T03:07:30.249Z,1001.01
2018-07-28T03:08:38.895Z,1001.04
2018-07-28T03:09:47.842Z,1001.03
2018-07-28T03:10:56.752Z,1000.98
2018-07-28T03:12:05.674Z,1001
2018-07-28T03:13:14.323Z,1000.97
2018-07-28T03:14:22.978Z,1000.99
2018-07-28T03:15:31.631Z,1000.98
2018-07-28T03:16:40.559Z,1001
2018-07-28T03:18:58.126Z,1000.95
2018-07-28T03:20:06.782Z,1000.93
2018-07-28T03:21:15.431Z,1000.99
2018-07-28T03:22:24.096Z,1001.03
2018-07-28T03:23:32.997Z,1001.01
2018-07-28T03:24:41.657Z,1000.98
2018-07-28T03:25:50.821Z,1001.02
2018-07-28T03:26:59.479Z,1000.99
2018-07-28T03:28:08.410Z,1001.01
2018-07-28T03:29:17.060Z,1001
2018-07-28T03:30:25.705Z,1001.01
2018-07-28T03:31:34.369Z,1001.07
2018-07-28T03:32:43.279Z,1001.05
2018-07-28T03:33:51.932Z,1001.02
2018-07-28T03:35:00.576Z,1000.92
2018-07-28T03:36:09.229Z,1000.94
2018-07-28T03:37:17.878Z,1000.96
2018-07-28T03:38:26.531Z,1001.04
2018-07-28T03:39:35.184Z,1001.02
2018-07-28T03:40:43.831Z,1000.98
2018-07-28T03:41:52.483Z,1000.95
2018-07-28T03:43:01.132Z,1000.92
2018-07-28T03:44:09.789Z,1000.88
2018-07-28T03:45:18.431Z,1000.88
2018-07-28T03:46:27.344Z,1000.93
2018-07-28T03:47:36.254Z,1000.91
2018-07-28T03:48:44.907Z,1000.97
2018-07-28T03:49:53.553Z,1000.92
2018-07-28T03:51:02.206Z,1000.89
2018-07-28T03:52:11.115Z,1000.85
2018-07-28T03:53:19.769Z,1000.84
2018-07-28T03:54:28.416Z,1000.84
2018-07-28T03:55:37.064Z,1000.86
2018-07-28T03:56:45.712Z,1000.81
2018-07-28T03:57:54.358Z,1000.8
2018-07-28T03:59:03.551Z,1000.8
2018-07-28T04:00:12.202Z,1000.77
2018-07-28T04:01:21.112Z,1000.77
2018-07-28T04:02:29.759Z,1000.74
2018-07-28T04:03:38.414Z,1000.75
2018-07-28T04:04:47.595Z,1000.76
2018-07-28T04:05:56.246Z,1000.75
2018-07-28T04:07:04.888Z,1000.69
2018-07-28T04:08:13.545Z,1000.71
2018-07-28T04:09:22.455Z,1000.65
2018-07-28T04:10:31.119Z,1000.62
2018-07-28T04:11:39.764Z,1000.6
2018-07-28T04:12:48.416Z,1000.69
2018-07-28T04:13:57.065Z,1000.67
2018-07-28T04:15:05.717Z,1000.68
2018-07-28T04:16:14.644Z,1000.68
2018-07-28T04:17:23.294Z,1000.72
2018-07-28T04:18:31.940Z,1000.67
2018-07-28T04:19:40.592Z,1000.65
2018-07-28T04:20:49.248Z,1000.66
2018-07-28T04:21:57.892Z,1000.72
2018-07-28T04:23:06.543Z,1000.89
2018-07-28T04:24:15.191Z,1001.05
2018-07-28T04:25:23.848Z,1001.19
2018-07-28T04:26:32.750Z,1001.21
2018-07-28T04:27:41.404Z,1001.2
2018-07-28T04:28:50.051Z,1001.1
2018-07-28T04:29:58.974Z,1000.99
2018-07-28T04:31:07.621Z,1000.93
2018-07-28T04:32:16.526Z,1000.96
2018-07-28T04:33:25.170Z,1000.95
2018-07-28T04:34:33.817Z,1000.97
2018-07-28T04:35:42.474Z,1001.06
2018-07-28T04:36:51.383Z,1001.06
2018-07-28T04:38:00.043Z,1001.14
2018-07-28T04:39:09.210Z,1001.21
2018-07-28T04:40:17.870Z,1001.11
2018-07-28T04:41:26.516Z,1001.11
2018-07-28T04:42:35.446Z,1001.24
2018-07-28T04:43:44.351Z,1001.26
2018-07-28T04:44:53.006Z,1001.25
2018-07-28T04:46:01.651Z,1001.11
2018-07-28T04:47:10.303Z,1000.89
2018-07-28T04:48:18.944Z,1000.87
2018-07-28T04:49:27.597Z,1001.04
2018-07-28T04:50:36.251Z,1001.33
2018-07-28T04:51:45.163Z,1001.44
2018-07-28T04:52:53.818Z,1001.38
2018-07-28T04:54:02.461Z,1001.17
2018-07-28T04:55:11.376Z,1000.98
2018-07-28T04:56:20.017Z,1001
2018-07-28T04:57:28.674Z,1001.06
2018-07-28T04:58:37.579Z,1001.24
2018-07-28T04:59:46.233Z,1001.44
2018-07-28T05:00:54.878Z,1001.32
2018-07-28T05:02:03.538Z,1001.03
2018-07-28T05:03:12.180Z,1000.93
2018-07-28T05:04:20.831Z,1001.14
2018-07-28T05:05:29.744Z,1001.29
2018-07-28T05:06:38.403Z,1001.29
2018-07-28T05:07:47.056Z,1001.23
2018-07-28T05:08:55.694Z,1001.17
2018-07-28T05:10:04.609Z,1001.11
2018-07-28T05:11:13.526Z,1001.09
2018-07-28T05:12:22.183Z,1001.11
2018-07-28T05:13:30.826Z,1001.15
2018-07-28T05:14:39.481Z,1001.15
2018-07-28T05:15:48.123Z,1001.06
2018-07-28T05:16:56.783Z,1000.93
2018-07-28T05:18:05.432Z,1000.81
2018-07-28T05:19:14.088Z,1000.72
2018-07-28T05:20:22.723Z,1000.72
2018-07-28T05:21:31.387Z,1000.85
2018-07-28T05:22:40.295Z,1000.9
2018-07-28T05:23:48.950Z,1000.92
2018-07-28T05:24:58.208Z,1000.91
2018-07-28T05:26:07.116Z,1000.85
2018-07-28T05:27:15.767Z,1000.83
2018-07-28T05:28:24.411Z,1000.86
2018-07-28T05:29:33.110Z,1000.96
2018-07-28T05:30:41.713Z,1000.92
2018-07-28T05:31:50.357Z,1000.93
2018-07-28T05:32:59.012Z,1000.92
2018-07-28T05:34:07.658Z,1000.85
2018-07-28T05:35:16.317Z,1000.83
2018-07-28T05:36:24.963Z,1000.79
2018-07-28T05:37:33.621Z,1000.73
2018-07-28T05:38:42.537Z,1000.73
2018-07-28T05:39:51.457Z,1000.81
2018-07-28T05:41:00.641Z,1000.86
2018-07-28T05:42:09.292Z,1000.91
2018-07-28T05:43:17.933Z,1000.92
2018-07-28T05:44:26.586Z,1000.84
2018-07-28T05:45:35.239Z,1000.83
2018-07-28T05:46:43.894Z,1000.81
2018-07-28T05:47:52.541Z,1000.89
2018-07-28T05:49:01.183Z,1000.91
2018-07-28T05:50:10.167Z,1000.81
2018-07-28T05:51:18.745Z,1000.82
2018-07-28T05:52:27.404Z,1000.81
2018-07-28T05:53:36.041Z,1000.78
2018-07-28T05:54:44.695Z,1000.77
2018-07-28T05:55:53.339Z,1000.76
2018-07-28T05:57:01.999Z,1000.75
2018-07-28T05:58:10.653Z,1000.75
2018-07-28T05:59:19.300Z,1000.75
2018-07-28T06:00:27.945Z,1000.76
2018-07-28T06:01:36.605Z,1000.76
2018-07-28T06:02:45.276Z,1000.78
2018-07-28T06:03:54.238Z,1000.83
2018-07-28T06:05:02.887Z,1000.79
2018-07-28T06:06:11.538Z,1000.8
2018-07-28T06:07:20.201Z,1000.75
2018-07-28T06:08:28.849Z,1000.64
2018-07-28T06:09:37.506Z,1000.58
2018-07-28T06:10:46.418Z,1000.6
2018-07-28T06:11:55.062Z,1000.69
2018-07-28T06:13:03.705Z,1000.69
2018-07-28T06:14:12.468Z,1000.71
2018-07-28T06:15:21.005Z,1000.73
2018-07-28T06:16:29.663Z,1000.75
2018-07-28T06:17:38.576Z,1000.72
2018-07-28T06:18:47.229Z,1000.65
2018-07-28T06:19:55.872Z,1000.66
2018-07-28T06:21:04.785Z,1000.62
2018-07-28T06:22:13.440Z,1000.66
2018-07-28T06:23:22.355Z,1000.67
2018-07-28T06:24:31.026Z,1000.68
2018-07-28T06:25:39.654Z,1000.7
2018-07-28T06:26:48.305Z,1000.7
2018-07-28T06:27:56.956Z,1000.7
2018-07-28T06:29:05.613Z,1000.73
2018-07-28T06:30:14.529Z,1000.79
2018-07-28T06:31:23.181Z,1000.84
2018-07-28T06:32:32.153Z,1000.86
2018-07-28T06:33:40.809Z,1000.88
2018-07-28T06:34:49.454Z,1000.91
2018-07-28T06:35:58.108Z,1000.88
2018-07-28T06:37:06.763Z,1000.89
2018-07-28T06:38:15.413Z,1000.89
2018-07-28T06:39:24.061Z,1000.83
2018-07-28T06:40:32.716Z,1000.77
2018-07-28T06:41:41.362Z,1000.73
2018-07-28T06:42:50.012Z,1000.68
2018-07-28T06:43:58.669Z,1000.66
2018-07-28T06:45:07.318Z,1000.69
2018-07-28T06:46:15.969Z,1000.76
2018-07-28T06:47:24.676Z,1000.73
2018-07-28T06:48:33.273Z,1000.79
2018-07-28T06:49:41.925Z,1000.73
2018-07-28T06:50:50.575Z,1000.73
2018-07-28T06:51:59.223Z,1000.69
2018-07-28T06:53:07.878Z,1000.67
2018-07-28T06:54:16.535Z,1000.66
2018-07-28T06:55:25.449Z,1000.66
2018-07-28T06:56:34.371Z,1000.66
2018-07-28T06:57:43.024Z,1000.62
2018-07-28T06:58:51.679Z,1000.67
2018-07-28T07:00:00.332Z,1000.7
2018-07-28T07:01:08.983Z,1000.72
2018-07-28T07:02:17.630Z,1000.76
2018-07-28T07:03:26.280Z,1000.78
2018-07-28T07:04:35.200Z,1000.78
2018-07-28T07:05:44.190Z,1000.77
2018-07-28T07:06:52.839Z,1000.69
2018-07-28T07:08:01.493Z,1000.66
2018-07-28T07:09:10.146Z,1000.7
2018-07-28T07:10:18.801Z,1000.69
2018-07-28T07:11:27.449Z,1000.74
2018-07-28T07:12:36.103Z,1000.73
2018-07-28T07:13:44.753Z,1000.76
2018-07-28T07:14:53.408Z,1000.73
2018-07-28T07:16:02.064Z,1000.82
2018-07-28T07:17:10.982Z,1000.85
2018-07-28T07:18:19.633Z,1000.88
2018-07-28T07:19:28.283Z,1000.92
2018-07-28T07:20:36.939Z,1000.87
2018-07-28T07:21:45.858Z,1000.83
2018-07-28T07:22:54.767Z,1000.79
2018-07-28T07:24:03.428Z,1000.83
2018-07-28T07:25:12.073Z,1000.82
2018-07-28T07:26:20.988Z,1000.9
2018-07-28T07:27:29.636Z,1001.04
2018-07-28T07:28:38.295Z,1001.31
2018-07-28T07:29:46.938Z,1001.63
2018-07-28T07:30:55.593Z,1001.78
2018-07-28T07:32:04.243Z,1001.76
2018-07-28T07:33:12.905Z,1001.63
2018-07-28T07:34:21.550Z,1001.43
2018-07-28T07:35:30.197Z,1001.56
2018-07-28T07:36:38.848Z,1001.73
2018-07-28T07:37:47.495Z,1001.77
2018-07-28T07:38:56.426Z,1001.83
2018-07-28T07:40:05.080Z,1001.71
2018-07-28T07:41:14.000Z,1001.7
2018-07-28T07:42:22.645Z,1001.74
2018-07-28T07:43:31.305Z,1001.81
2018-07-28T07:44:39.975Z,1001.67
2018-07-28T07:45:48.875Z,1001.73
2018-07-28T07:46:57.519Z,1001.93
2018-07-28T07:48:06.178Z,1001.98
2018-07-28T07:49:14.833Z,1001.86
2018-07-28T07:50:23.486Z,1001.62
2018-07-28T07:51:32.130Z,1001.64
2018-07-28T07:52:40.783Z,1001.88
2018-07-28T07:53:49.511Z,1002.05
2018-07-28T07:54:58.094Z,1001.83
2018-07-28T07:56:06.750Z,1001.85
2018-07-28T07:57:15.394Z,1001.93
2018-07-28T07:58:24.049Z,1001.88
2018-07-28T07:59:32.701Z,1001.91
2018-07-28T08:00:41.361Z,1001.91
2018-07-28T08:01:50.003Z,1001.88
2018-07-28T08:02:58.925Z,1001.91
2018-07-28T08:04:07.573Z,1001.95
2018-07-28T08:05:16.236Z,1002
2018-07-28T08:06:24.884Z,1001.97
2018-07-28T08:07:33.545Z,1001.94
2018-07-28T08:08:42.730Z,1001.95
2018-07-28T08:09:51.392Z,1001.95
2018-07-28T08:11:00.045Z,1001.96
2018-07-28T08:12:08.959Z,1001.98
2018-07-28T08:13:17.610Z,1001.95
2018-07-28T08:14:26.261Z,1001.92
2018-07-28T08:15:34.925Z,1001.96
2018-07-28T08:16:43.573Z,1001.92
2018-07-28T08:17:52.234Z,1001.92
2018-07-28T08:19:00.873Z,1001.89
2018-07-28T08:20:09.533Z,1001.91
2018-07-28T08:21:18.185Z,1001.81
2018-07-28T08:22:26.839Z,1001.75
2018-07-28T08:23:35.487Z,1001.68
2018-07-28T08:24:44.410Z,1001.64
2018-07-28T08:25:53.324Z,1001.62
2018-07-28T08:27:02.241Z,1001.71
2018-07-28T08:28:11.152Z,1001.78
2018-07-28T08:29:19.813Z,1001.81
2018-07-28T08:30:28.465Z,1001.81
2018-07-28T08:31:37.122Z,1001.8
2018-07-28T08:32:45.775Z,1001.82
2018-07-28T08:33:54.688Z,1001.86
2018-07-28T08:35:03.611Z,1001.88
2018-07-28T08:36:12.265Z,1001.91
2018-07-28T08:37:20.922Z,1001.89
2018-07-28T08:38:29.570Z,1001.86
2018-07-28T08:39:38.225Z,1001.92
2018-07-28T08:40:46.875Z,1001.95
2018-07-28T08:41:55.534Z,1001.97
2018-07-28T08:43:04.183Z,1001.92
2018-07-28T08:44:12.844Z,1001.91
2018-07-28T08:45:21.493Z,1001.9
2018-07-28T08:46:30.152Z,1001.88
2018-07-28T08:47:38.802Z,1001.9
2018-07-28T08:48:47.501Z,1001.89
2018-07-28T08:49:56.108Z,1001.88
2018-07-28T08:51:04.760Z,1001.84
2018-07-28T08:52:13.417Z,1001.84
2018-07-28T08:53:22.073Z,1001.83
2018-07-28T08:54:30.744Z,1001.9
2018-07-28T08:55:39.484Z,1001.95
2018-07-28T08:56:48.035Z,1001.98
2018-07-28T08:57:56.688Z,1001.95
2018-07-28T08:59:05.341Z,1001.98
2018-07-28T09:00:13.995Z,1001.95
2018-07-28T09:01:22.658Z,1002
2018-07-28T09:02:31.309Z,1002.03
2018-07-28T09:03:40.234Z,1002.04
2018-07-28T09:04:48.881Z,1002.08
2018-07-28T09:05:57.584Z,1002.1
2018-07-28T09:07:06.584Z,1002.11
2018-07-28T09:08:15.237Z,1002.07
2018-07-28T09:09:23.893Z,1002.02
2018-07-28T09:10:32.848Z,1001.97
2018-07-28T09:11:41.461Z,1002
2018-07-28T09:12:50.111Z,1002.07
2018-07-28T09:13:58.767Z,1002.12
2018-07-28T09:15:07.410Z,1002.12
2018-07-28T09:16:16.062Z,1002.03
2018-07-28T09:17:24.718Z,1001.99
2018-07-28T09:18:33.370Z,1001.91
2018-07-28T09:19:42.030Z,1001.86
2018-07-28T09:20:50.683Z,1001.83
2018-07-28T09:21:59.334Z,1001.85
2018-07-28T09:23:08.019Z,1001.9
2018-07-28T09:24:16.634Z,1001.89
2018-07-28T09:25:25.290Z,1001.93
2018-07-28T09:26:33.945Z,1001.96
2018-07-28T09:27:42.600Z,1002.05
2018-07-28T09:28:51.519Z,1002.07
2018-07-28T09:30:00.432Z,1002.08
2018-07-28T09:31:09.084Z,1002.09
2018-07-28T09:32:18.008Z,1002.09
2018-07-28T09:33:26.656Z,1002.07
2018-07-28T09:34:35.308Z,1002.04
2018-07-28T09:35:43.959Z,1002.07
2018-07-28T09:36:52.936Z,1002.07
2018-07-28T09:38:01.543Z,1002.08
2018-07-28T09:39:10.201Z,1002.14
2018-07-28T09:40:19.114Z,1002.15
2018-07-28T09:41:27.771Z,1002.17
2018-07-28T09:42:36.421Z,1002.18
2018-07-28T09:43:45.074Z,1002.18
2018-07-28T09:44:53.725Z,1002.18
2018-07-28T09:46:02.642Z,1002.22
2018-07-28T09:47:11.302Z,1002.2
2018-07-28T09:48:19.957Z,1002.17
2018-07-28T09:49:28.610Z,1002.2
2018-07-28T09:50:37.266Z,1002.22
2018-07-28T09:51:45.925Z,1002.19
2018-07-28T09:52:54.576Z,1002.24
2018-07-28T09:54:03.230Z,1002.27
2018-07-28T09:55:11.883Z,1002.38
2018-07-28T09:56:20.553Z,1002.48
2018-07-28T09:57:29.192Z,1002.62
2018-07-28T09:58:37.847Z,1002.69
2018-07-28T09:59:46.498Z,1002.74
2018-07-28T10:00:55.152Z,1002.77
2018-07-28T10:02:03.804Z,1002.81
2018-07-28T10:03:12.785Z,1002.79
2018-07-28T10:04:21.439Z,1002.78
2018-07-28T10:05:30.219Z,1002.8
2018-07-28T10:06:39.082Z,1002.81
2018-07-28T10:07:48.002Z,1002.8
2018-07-28T10:08:56.659Z,1002.79
2018-07-28T10:10:05.307Z,1002.77
2018-07-28T10:11:13.961Z,1002.79
2018-07-28T10:12:22.617Z,1002.78
2018-07-28T10:13:31.534Z,1002.81
2018-07-28T10:14:40.182Z,1002.79
2018-07-28T10:15:48.838Z,1002.79
2018-07-28T10:16:57.755Z,1002.8
2018-07-28T10:18:06.416Z,1002.84
2018-07-28T10:19:15.329Z,1002.87
2018-07-28T10:20:23.974Z,1002.87
2018-07-28T10:21:32.632Z,1002.91
2018-07-28T10:22:41.277Z,1002.96
2018-07-28T10:23:49.937Z,1002.96
2018-07-28T10:24:58.584Z,1003.03
2018-07-28T10:26:07.503Z,1003.04
2018-07-28T10:27:16.148Z,1003.06
2018-07-28T10:28:24.813Z,1003.06
2018-07-28T10:29:34.004Z,1003.03
2018-07-28T10:30:42.661Z,1002.99
2018-07-28T10:31:51.305Z,1003.02
2018-07-28T10:32:59.967Z,1003.01
2018-07-28T10:34:08.616Z,1003.01
2018-07-28T10:35:17.271Z,1003.03
2018-07-28T10:36:26.049Z,1003.08
2018-07-28T10:37:34.566Z,1003.1
2018-07-28T10:38:43.223Z,1003.03
2018-07-28T10:39:51.876Z,1003.02
2018-07-28T10:41:00.537Z,1003.06
2018-07-28T10:42:09.175Z,1003.06
2018-07-28T10:43:17.831Z,1003.07
2018-07-28T10:44:26.482Z,1003.12
2018-07-28T10:45:35.448Z,1003.15
2018-07-28T10:46:44.499Z,1003.2
2018-07-28T10:47:53.431Z,1003.23
2018-07-28T10:49:02.079Z,1003.25
2018-07-28T10:50:10.739Z,1003.24
2018-07-28T10:51:19.381Z,1003.25
2018-07-28T10:52:28.034Z,1003.26
2018-07-28T10:53:36.684Z,1003.25
2018-07-28T10:54:45.618Z,1003.23
2018-07-28T10:55:54.269Z,1003.2
2018-07-28T10:57:02.917Z,1003.22
2018-07-28T10:58:11.566Z,1003.2
2018-07-28T10:59:20.765Z,1003.23
2018-07-28T11:00:29.442Z,1003.22
2018-07-28T11:01:38.073Z,1003.28
2018-07-28T11:02:46.724Z,1003.29
2018-07-28T11:03:55.366Z,1003.25
2018-07-28T11:05:04.029Z,1003.29
2018-07-28T11:06:12.680Z,1003.28
2018-07-28T11:07:21.335Z,1003.27
2018-07-28T11:08:29.985Z,1003.27
2018-07-28T11:09:38.646Z,1003.33
2018-07-28T11:10:47.324Z,1003.34
2018-07-28T11:11:55.952Z,1003.36
2018-07-28T11:13:04.593Z,1003.35
2018-07-28T11:14:13.249Z,1003.35
2018-07-28T11:15:21.907Z,1003.31
2018-07-28T11:16:30.557Z,1003.29
2018-07-28T11:17:39.216Z,1003.29
2018-07-28T11:18:48.273Z,1003.26
2018-07-28T11:19:56.776Z,1003.18
2018-07-28T11:21:05.428Z,1003.19
2018-07-28T11:22:14.083Z,1003.21
2018-07-28T11:23:22.735Z,1003.2
2018-07-28T11:24:31.388Z,1003.24
2018-07-28T11:25:40.041Z,1003.22
2018-07-28T11:26:48.980Z,1003.17
2018-07-28T11:27:57.627Z,1003.18
2018-07-28T11:29:06.282Z,1003.19
2018-07-28T11:30:14.933Z,1003.16
2018-07-28T11:31:23.590Z,1003.15
2018-07-28T11:32:32.242Z,1003.19
2018-07-28T11:33:40.896Z,1003.21
2018-07-28T11:34:49.549Z,1003.2
2018-07-28T11:35:58.201Z,1003.17
2018-07-28T11:37:07.122Z,1003.2
2018-07-28T11:38:15.770Z,1003.16
2018-07-28T11:39:24.692Z,1003.21
2018-07-28T11:40:33.339Z,1003.17
2018-07-28T11:41:42.269Z,1003.13
2018-07-28T11:42:50.923Z,1003.15
2018-07-28T11:43:59.580Z,1003.17
2018-07-28T11:45:08.502Z,1003.17
2018-07-28T11:46:17.160Z,1003.16
2018-07-28T11:47:25.813Z,1003.17
2018-07-28T11:48:34.469Z,1003.16
2018-07-28T11:49:43.119Z,1003.15
2018-07-28T11:50:51.776Z,1003.11
2018-07-28T11:52:00.431Z,1003.1
2018-07-28T11:53:09.087Z,1003.1
2018-07-28T11:54:17.744Z,1003.1
2018-07-28T11:55:26.417Z,1003.09
2018-07-28T11:56:35.338Z,1003.13
2018-07-28T11:57:43.993Z,1003.12
2018-07-28T11:58:52.650Z,1003.1
2018-07-28T12:00:01.300Z,1003.15
2018-07-28T12:01:09.953Z,1003.12
2018-07-28T12:02:18.608Z,1003.16
2018-07-28T12:03:27.536Z,1003.21
2018-07-28T12:04:36.183Z,1003.17
2018-07-28T12:05:44.837Z,1003.2
2018-07-28T12:06:53.486Z,1003.21
2018-07-28T12:08:02.151Z,1003.27
2018-07-28T12:09:10.802Z,1003.25
2018-07-28T12:10:19.455Z,1003.25
2018-07-28T12:11:28.108Z,1003.26
2018-07-28T12:12:36.812Z,1003.22
2018-07-28T12:13:45.419Z,1003.25
2018-07-28T12:14:54.069Z,1003.28
2018-07-28T12:16:02.994Z,1003.26
2018-07-28T12:17:11.639Z,1003.21
2018-07-28T12:18:20.414Z,1003.15
2018-07-28T12:19:29.418Z,1003.11
2018-07-28T12:20:38.078Z,1003.08
2018-07-28T12:21:46.721Z,1003.03
2018-07-28T12:22:55.382Z,1003.02
2018-07-28T12:24:04.389Z,1003.07
2018-07-28T12:25:12.952Z,1003.06
2018-07-28T12:26:21.600Z,1003.05
2018-07-28T12:27:30.518Z,1003.04
2018-07-28T12:28:39.183Z,1003.04
2018-07-28T12:29:47.832Z,1003.03
2018-07-28T12:30:56.487Z,1003.04
2018-07-28T12:32:05.129Z,1002.95
2018-07-28T12:33:13.787Z,1002.96
2018-07-28T12:34:22.433Z,1002.96
2018-07-28T12:35:31.100Z,1002.92
2018-07-28T12:36:39.746Z,1002.85
2018-07-28T12:37:48.400Z,1002.89
2018-07-28T12:38:57.049Z,1002.87
2018-07-28T12:40:05.717Z,1002.95
2018-07-28T12:41:14.358Z,1002.88
2018-07-28T12:42:23.014Z,1002.86
2018-07-28T12:43:31.665Z,1002.88
2018-07-28T12:44:40.325Z,1002.99
2018-07-28T12:45:48.977Z,1003.02
2018-07-28T12:46:57.627Z,1003.06
2018-07-28T12:48:06.279Z,1003.14
2018-07-28T12:49:14.932Z,1003.11
2018-07-28T12:50:23.603Z,1003.18
2018-07-28T12:51:32.777Z,1003.19
2018-07-28T12:52:41.436Z,1003.16
2018-07-28T12:53:50.083Z,1003.22
2018-07-28T12:54:58.750Z,1003.27
2018-07-28T12:56:07.662Z,1003.24
2018-07-28T12:57:16.959Z,1003.24
2018-07-28T12:58:25.604Z,1003.3
2018-07-28T12:59:34.266Z,1003.3
2018-07-28T13:00:42.921Z,1003.33
2018-07-28T13:01:51.578Z,1003.34
2018-07-28T13:03:00.222Z,1003.33
2018-07-28T13:04:08.877Z,1003.31
2018-07-28T13:05:17.538Z,1003.26
2018-07-28T13:06:26.194Z,1003.21
2018-07-28T13:07:34.851Z,1003.18
2018-07-28T13:08:43.496Z,1003.17
2018-07-28T13:09:52.204Z,1003.09
2018-07-28T13:11:01.084Z,1003.19
2018-07-28T13:12:09.744Z,1003.19
2018-07-28T13:13:18.401Z,1003.24
2018-07-28T13:14:27.052Z,1003.25
2018-07-28T13:15:35.714Z,1003.27
2018-07-28T13:16:44.366Z,1003.22
2018-07-28T13:17:53.047Z,1003.21
2018-07-28T13:19:01.681Z,1003.21
2018-07-28T13:20:10.340Z,1003.21
2018-07-28T13:21:18.985Z,1003.27
2018-07-28T13:22:27.641Z,1003.26
2018-07-28T13:23:36.596Z,1003.25
2018-07-28T13:24:45.226Z,1003.26
2018-07-28T13:25:53.879Z,1003.2
2018-07-28T13:27:02.526Z,1003.17
2018-07-28T13:28:11.448Z,1003.11
2018-07-28T13:29:20.097Z,1003.04
2018-07-28T13:30:28.760Z,1003.02
2018-07-28T13:31:37.403Z,1002.96
2018-07-28T13:32:46.061Z,1002.93
2018-07-28T13:33:54.711Z,1002.96
2018-07-28T13:35:03.377Z,1002.95
2018-07-28T13:36:12.021Z,1002.97
2018-07-28T13:37:20.945Z,1002.99
2018-07-28T13:38:29.601Z,1003
2018-07-28T13:39:38.262Z,1003.04
2018-07-28T13:40:46.914Z,1003
2018-07-28T13:41:55.564Z,1003.04
2018-07-28T13:43:04.218Z,1003.01
2018-07-28T13:44:12.868Z,1003.03
2018-07-28T13:45:21.531Z,1003.02
2018-07-28T13:46:30.180Z,1003
2018-07-28T13:47:38.871Z,1002.97
2018-07-28T13:48:47.485Z,1002.96
2018-07-28T13:49:56.154Z,1002.98
2018-07-28T13:51:04.799Z,1003
2018-07-28T13:52:13.459Z,1003
2018-07-28T13:53:22.693Z,1003.02
2018-07-28T13:54:31.297Z,1003.02
2018-07-28T13:55:39.949Z,1002.98